createdAt,value
2019-03-12T00:00:00.756Z,5.85
2019-03-12T00:01:00.743Z,5.83
2019-03-12T00:02:00.749Z,5.81
2019-03-12T00:03:00.730Z,5.82
2019-03-12T00:04:00.710Z,5.83
2019-03-12T00:05:00.707Z,5.82
2019-03-12T00:06:00.693Z,5.82
2019-03-12T00:07:00.697Z,5.75
2019-03-12T00:08:00.665Z,5.79
2019-03-12T00:09:00.666Z,5.76
2019-03-12T00:10:00.644Z,5.76
2019-03-12T00:11:00.632Z,5.72
2019-03-12T00:12:00.639Z,5.74
2019-03-12T00:13:00.612Z,5.74
2019-03-12T00:14:00.597Z,5.61
2019-03-12T00:15:00.609Z,5.74
2019-03-12T00:16:00.591Z,5.65
2019-03-12T00:17:00.596Z,5.78
2019-03-12T00:18:00.554Z,5.64
2019-03-12T00:19:00.558Z,5.72
2019-03-12T00:20:00.534Z,5.67
2019-03-12T00:21:00.539Z,5.64
2019-03-12T00:22:00.511Z,5.65
2019-03-12T00:23:00.519Z,5.71
2019-03-12T00:24:00.492Z,5.72
2019-03-12T00:25:00.482Z,5.76
2019-03-12T00:26:00.473Z,5.72
2019-03-12T00:27:00.485Z,5.71
2019-03-12T00:28:00.446Z,5.65
2019-03-12T00:29:00.437Z,5.61
2019-03-12T00:30:00.476Z,5.64
2019-03-12T00:31:00.414Z,5.68
2019-03-12T00:32:00.424Z,5.63
2019-03-12T00:33:00.421Z,5.65
2019-03-12T00:34:00.380Z,5.63
2019-03-12T00:35:00.403Z,5.68
2019-03-12T00:36:00.358Z,5.68
2019-03-12T00:37:00.349Z,5.64
2019-03-12T00:38:00.355Z,5.64
2019-03-12T00:39:00.350Z,5.63
2019-03-12T00:40:00.376Z,5.64
2019-03-12T00:41:00.306Z,5.61
2019-03-12T00:42:00.299Z,5.61
2019-03-12T00:43:00.300Z,5.58
2019-03-12T00:44:00.321Z,5.61
2019-03-12T00:45:00.474Z,5.51
2019-03-12T00:46:00.251Z,5.53
2019-03-12T00:47:00.237Z,5.65
2019-03-12T00:48:00.244Z,5.48
2019-03-12T00:49:00.236Z,5.54
2019-03-12T00:50:00.375Z,5.48
2019-03-12T00:51:00.244Z,5.49
2019-03-12T00:52:00.187Z,5.42
2019-03-12T00:53:00.174Z,5.36
2019-03-12T00:54:00.180Z,5.30
2019-03-12T00:55:00.353Z,5.33
2019-03-12T00:56:00.145Z,5.35
2019-03-12T00:57:00.138Z,5.35
2019-03-12T00:58:00.120Z,5.30
2019-03-12T00:59:00.124Z,5.22
2019-03-12T01:00:00.179Z,5.24
2019-03-12T01:01:00.091Z,5.33
2019-03-12T01:02:00.083Z,5.36
2019-03-12T01:03:00.092Z,5.33
2019-03-12T01:04:00.052Z,5.30
2019-03-12T01:05:00.084Z,5.24
2019-03-12T01:06:00.030Z,5.25
2019-03-12T01:07:00.022Z,5.33
2019-03-12T01:08:00.037Z,5.31
2019-03-12T01:09:00.004Z,5.35
2019-03-12T01:10:00.005Z,5.38
2019-03-12T01:10:59.977Z,5.33
2019-03-12T01:11:59.966Z,5.40
2019-03-12T01:12:59.957Z,5.33
2019-03-12T01:13:59.970Z,5.39
2019-03-12T01:14:59.951Z,5.38
2019-03-12T01:15:59.920Z,5.40
2019-03-12T01:16:59.915Z,5.31
2019-03-12T01:17:59.900Z,5.31
2019-03-12T01:18:59.913Z,5.36
2019-03-12T01:19:59.886Z,5.24
2019-03-12T01:20:59.873Z,5.40
2019-03-12T01:21:59.863Z,5.33
2019-03-12T01:22:59.849Z,5.39
2019-03-12T01:23:59.856Z,5.33
2019-03-12T01:24:59.842Z,5.33
2019-03-12T01:25:59.813Z,5.42
2019-03-12T01:26:59.813Z,5.30
2019-03-12T01:27:59.792Z,5.35
2019-03-12T01:28:59.779Z,5.31
2019-03-12T01:29:59.798Z,5.33
2019-03-12T01:30:59.758Z,5.36
2019-03-12T01:31:59.756Z,5.40
2019-03-12T01:32:59.744Z,5.40
2019-03-12T01:33:59.728Z,5.42
2019-03-12T01:34:59.752Z,5.39
2019-03-12T01:35:59.708Z,5.36
2019-03-12T01:36:59.703Z,5.28
2019-03-12T01:37:59.683Z,5.38
2019-03-12T01:38:59.682Z,5.36
2019-03-12T01:39:59.674Z,5.25
2019-03-12T01:40:59.651Z,5.27
2019-03-12T01:41:59.654Z,5.28
2019-03-12T01:42:59.643Z,5.27
2019-03-12T01:43:59.638Z,5.31
2019-03-12T01:44:59.623Z,5.27
2019-03-12T01:45:59.601Z,5.28
2019-03-12T01:46:59.586Z,5.31
2019-03-12T01:47:59.577Z,5.31
2019-03-12T01:48:59.570Z,5.35
2019-03-12T01:49:59.570Z,5.39
2019-03-12T01:50:59.560Z,5.35
2019-03-12T01:51:59.535Z,5.39
2019-03-12T01:52:59.519Z,5.36
2019-03-12T01:53:59.513Z,5.30
2019-03-12T01:54:59.516Z,5.36
2019-03-12T01:55:59.509Z,5.31
2019-03-12T01:56:59.482Z,5.31
2019-03-12T01:57:59.465Z,5.38
2019-03-12T01:58:59.456Z,5.25
2019-03-12T01:59:59.457Z,5.30
2019-03-12T02:00:59.468Z,5.33
2019-03-12T02:01:59.425Z,5.40
2019-03-12T02:02:59.410Z,5.35
2019-03-12T02:03:59.410Z,5.35
2019-03-12T02:04:59.397Z,5.35
2019-03-12T02:05:59.406Z,5.36
2019-03-12T02:06:59.384Z,5.39
2019-03-12T02:07:59.358Z,5.36
2019-03-12T02:08:59.343Z,5.36
2019-03-12T02:09:59.337Z,5.36
2019-03-12T02:10:59.343Z,5.35
2019-03-12T02:11:59.324Z,5.40
2019-03-12T02:12:59.302Z,5.38
2019-03-12T02:13:59.301Z,5.36
2019-03-12T02:14:59.297Z,5.33
2019-03-12T02:15:59.292Z,5.35
2019-03-12T02:16:59.259Z,5.27
2019-03-12T02:17:59.253Z,5.27
2019-03-12T02:18:59.239Z,5.21
2019-03-12T02:19:59.233Z,5.13
2019-03-12T02:20:59.210Z,5.10
2019-03-12T02:21:59.228Z,5.17
2019-03-12T02:22:59.212Z,5.09
2019-03-12T02:23:59.189Z,5.04
2019-03-12T02:24:59.183Z,4.99
2019-03-12T02:25:59.156Z,4.99
2019-03-12T02:26:59.167Z,5.02
2019-03-12T02:27:59.138Z,4.91
2019-03-12T02:28:59.122Z,4.91
2019-03-12T02:29:59.131Z,4.85
2019-03-12T02:30:59.122Z,4.85
2019-03-12T02:31:59.097Z,4.84
2019-03-12T02:32:59.100Z,4.86
2019-03-12T02:33:59.071Z,4.82
2019-03-12T02:34:59.069Z,4.72
2019-03-12T02:35:59.052Z,4.77
2019-03-12T02:36:59.057Z,4.72
2019-03-12T02:37:59.040Z,4.65
2019-03-12T02:38:59.018Z,4.69
2019-03-12T02:39:59.013Z,4.70
2019-03-12T02:40:59.004Z,4.65
2019-03-12T02:41:58.984Z,4.69
2019-03-12T02:42:59.006Z,4.69
2019-03-12T02:43:58.969Z,4.63
2019-03-12T02:44:58.980Z,4.69
2019-03-12T02:45:58.939Z,4.65
2019-03-12T02:46:58.929Z,4.67
2019-03-12T02:47:58.937Z,4.58
2019-03-12T02:48:58.913Z,4.59
2019-03-12T02:49:58.896Z,4.66
2019-03-12T02:50:58.889Z,4.59
2019-03-12T02:51:58.878Z,4.58
2019-03-12T02:52:58.877Z,4.52
2019-03-12T02:53:58.856Z,4.55
2019-03-12T02:54:58.852Z,4.50
2019-03-12T02:56:01.773Z,4.58
2019-03-12T02:56:58.820Z,4.60
2019-03-12T02:57:58.831Z,4.42
2019-03-12T02:58:58.800Z,4.55
2019-03-12T02:59:58.795Z,4.55
2019-03-12T03:00:58.787Z,4.55
2019-03-12T03:01:58.791Z,4.52
2019-03-12T03:02:58.787Z,4.48
2019-03-12T03:03:58.772Z,4.58
2019-03-12T03:04:58.729Z,4.55
2019-03-12T03:05:58.721Z,4.51
2019-03-12T03:06:58.722Z,4.52
2019-03-12T03:07:58.711Z,4.50
2019-03-12T03:08:58.709Z,4.51
2019-03-12T03:09:58.675Z,4.54
2019-03-12T03:10:58.704Z,4.44
2019-03-12T03:11:58.662Z,4.41
2019-03-12T03:12:58.652Z,4.45
2019-03-12T03:13:58.653Z,4.48
2019-03-12T03:14:58.620Z,4.40
2019-03-12T03:15:58.639Z,4.37
2019-03-12T03:16:58.625Z,4.42
2019-03-12T03:17:58.587Z,4.37
2019-03-12T03:18:58.593Z,4.52
2019-03-12T03:19:58.575Z,4.41
2019-03-12T03:20:58.571Z,4.41
2019-03-12T03:21:58.546Z,4.40
2019-03-12T03:22:58.536Z,4.44
2019-03-12T03:23:58.541Z,4.42
2019-03-12T03:24:58.511Z,4.41
2019-03-12T03:25:58.503Z,4.36
2019-03-12T03:26:58.492Z,4.30
2019-03-12T03:27:58.476Z,4.34
2019-03-12T03:28:58.537Z,4.33
2019-03-12T03:29:58.461Z,4.36
2019-03-12T03:30:58.457Z,4.36
2019-03-12T03:31:58.448Z,4.37
2019-03-12T03:32:58.633Z,4.29
2019-03-12T03:33:58.450Z,4.40
2019-03-12T03:34:58.417Z,4.26
2019-03-12T03:35:58.408Z,4.30
2019-03-12T03:36:58.389Z,4.33
2019-03-12T03:37:58.370Z,4.30
2019-03-12T03:38:58.392Z,4.30
2019-03-12T03:39:58.375Z,4.29
2019-03-12T03:40:58.373Z,4.26
2019-03-12T03:41:58.353Z,4.29
2019-03-12T03:42:58.321Z,4.36
2019-03-12T03:43:58.337Z,4.30
2019-03-12T03:44:58.296Z,4.30
2019-03-12T03:45:58.282Z,4.20
2019-03-12T03:46:58.277Z,4.32
2019-03-12T03:47:58.282Z,4.18
2019-03-12T03:48:58.286Z,4.15
2019-03-12T03:49:58.271Z,4.26
2019-03-12T03:50:58.248Z,4.14
2019-03-12T03:51:58.222Z,4.14
2019-03-12T03:52:58.221Z,4.00
2019-03-12T03:53:58.240Z,4.04
2019-03-12T03:54:58.208Z,4.06
2019-03-12T03:55:58.182Z,3.97
2019-03-12T03:56:58.158Z,3.97
2019-03-12T03:57:58.153Z,3.86
2019-03-12T03:58:58.142Z,3.88
2019-03-12T03:59:58.148Z,3.83
2019-03-12T04:00:58.120Z,3.88
2019-03-12T04:01:58.119Z,3.97
2019-03-12T04:02:58.097Z,3.83
2019-03-12T04:03:58.086Z,3.84
2019-03-12T04:04:58.102Z,3.84
2019-03-12T04:05:58.071Z,3.73
2019-03-12T04:06:58.060Z,3.73
2019-03-12T04:07:58.087Z,3.79
2019-03-12T04:08:58.031Z,3.61
2019-03-12T04:09:58.040Z,3.65
2019-03-12T04:10:58.032Z,3.57
2019-03-12T04:11:58.039Z,3.52
2019-03-12T04:12:57.996Z,3.61
2019-03-12T04:13:58.122Z,3.58
2019-03-12T04:14:58.006Z,3.57
2019-03-12T04:15:57.970Z,3.57
2019-03-12T04:16:57.951Z,3.65
2019-03-12T04:17:57.941Z,3.58
2019-03-12T04:18:57.932Z,3.54
2019-03-12T04:19:57.944Z,3.55
2019-03-12T04:20:57.913Z,3.58
2019-03-12T04:21:57.907Z,3.61
2019-03-12T04:22:57.885Z,3.52
2019-03-12T04:23:57.865Z,3.55
2019-03-12T04:24:57.861Z,3.52
2019-03-12T04:25:57.870Z,3.50
2019-03-12T04:26:57.831Z,3.52
2019-03-12T04:27:57.820Z,3.43
2019-03-12T04:28:57.817Z,3.43
2019-03-12T04:29:57.797Z,3.40
2019-03-12T04:30:57.808Z,3.40
2019-03-12T04:31:57.784Z,3.40
2019-03-12T04:32:57.765Z,3.45
2019-03-12T04:33:57.764Z,3.36
2019-03-12T04:34:57.748Z,3.35
2019-03-12T04:35:57.759Z,3.33
2019-03-12T04:36:57.732Z,3.21
2019-03-12T04:37:57.710Z,3.28
2019-03-12T04:38:57.702Z,3.24
2019-03-12T04:39:57.701Z,3.29
2019-03-12T04:40:57.710Z,3.28
2019-03-12T04:41:57.692Z,3.26
2019-03-12T04:42:57.656Z,3.24
2019-03-12T04:43:57.646Z,3.21
2019-03-12T04:44:57.631Z,3.20
2019-03-12T04:45:57.629Z,3.11
2019-03-12T04:46:57.643Z,3.15
2019-03-12T04:47:57.603Z,3.18
2019-03-12T04:48:57.613Z,3.06
2019-03-12T04:49:57.589Z,3.06
2019-03-12T04:50:57.585Z,3.17
2019-03-12T04:51:57.580Z,3.05
2019-03-12T04:52:57.561Z,3.13
2019-03-12T04:53:57.543Z,3.10
2019-03-12T04:54:57.559Z,3.13
2019-03-12T04:55:57.518Z,3.06
2019-03-12T04:56:57.521Z,2.99
2019-03-12T04:57:57.500Z,3.00
2019-03-12T04:58:57.480Z,3.02
2019-03-12T04:59:57.480Z,2.93
2019-03-12T05:00:57.473Z,2.93
2019-03-12T05:01:57.469Z,2.96
2019-03-12T05:02:57.448Z,3.00
2019-03-12T05:03:57.429Z,2.96
2019-03-12T05:04:57.413Z,2.99
2019-03-12T05:05:57.409Z,3.02
2019-03-12T05:06:57.390Z,3.00
2019-03-12T05:07:57.400Z,2.90
2019-03-12T05:08:57.370Z,2.97
2019-03-12T05:09:57.366Z,2.95
2019-03-12T05:10:57.355Z,2.84
2019-03-12T05:11:57.338Z,2.89
2019-03-12T05:12:57.343Z,2.89
2019-03-12T05:13:57.322Z,2.99
2019-03-12T05:14:57.313Z,2.84
2019-03-12T05:15:57.293Z,2.90
2019-03-12T05:16:57.313Z,2.92
2019-03-12T05:17:57.289Z,2.87
2019-03-12T05:18:57.263Z,2.81
2019-03-12T05:19:57.250Z,2.85
2019-03-12T05:20:57.247Z,2.84
2019-03-12T05:21:57.236Z,2.81
2019-03-12T05:22:57.236Z,2.89
2019-03-12T05:23:57.215Z,2.81
2019-03-12T05:24:57.199Z,2.92
2019-03-12T05:25:57.185Z,2.84
2019-03-12T05:26:57.175Z,2.84
2019-03-12T05:27:57.185Z,2.84
2019-03-12T05:28:57.151Z,2.89
2019-03-12T05:29:57.148Z,2.87
2019-03-12T05:30:57.139Z,2.85
2019-03-12T05:31:57.119Z,2.82
2019-03-12T05:32:57.108Z,2.87
2019-03-12T05:33:57.184Z,2.90
2019-03-12T05:34:57.089Z,2.78
2019-03-12T05:35:57.086Z,2.74
2019-03-12T05:36:57.065Z,2.84
2019-03-12T05:37:57.069Z,2.79
2019-03-12T05:38:57.049Z,2.81
2019-03-12T05:39:57.045Z,2.78
2019-03-12T05:40:57.025Z,2.79
2019-03-12T05:41:57.017Z,2.87
2019-03-12T05:42:57.025Z,2.79
2019-03-12T05:43:57.025Z,2.78
2019-03-12T05:44:56.980Z,2.77
2019-03-12T05:45:56.965Z,2.84
2019-03-12T05:46:56.954Z,2.78
2019-03-12T05:47:56.945Z,2.77
2019-03-12T05:48:56.949Z,2.77
2019-03-12T05:49:56.929Z,2.79
2019-03-12T05:50:56.912Z,2.71
2019-03-12T05:51:56.899Z,2.82
2019-03-12T05:52:56.902Z,2.78
2019-03-12T05:53:56.932Z,2.72
2019-03-12T05:54:56.869Z,2.74
2019-03-12T05:55:56.858Z,2.78
2019-03-12T05:56:56.855Z,2.72
2019-03-12T05:57:56.853Z,2.72
2019-03-12T05:58:56.855Z,2.71
2019-03-12T05:59:56.812Z,2.69
2019-03-12T06:00:56.798Z,2.71
2019-03-12T06:01:56.794Z,2.72
2019-03-12T06:02:56.792Z,2.71
2019-03-12T06:03:56.768Z,2.75
2019-03-12T06:04:56.791Z,2.66
2019-03-12T06:05:56.778Z,2.64
2019-03-12T06:06:56.732Z,2.67
2019-03-12T06:07:56.730Z,2.61
2019-03-12T06:08:56.735Z,2.67
2019-03-12T06:09:56.731Z,2.67
2019-03-12T06:10:56.693Z,2.63
2019-03-12T06:11:56.685Z,2.66
2019-03-12T06:12:56.670Z,2.63
2019-03-12T06:13:56.660Z,2.63
2019-03-12T06:14:56.664Z,2.66
2019-03-12T06:15:56.642Z,2.69
2019-03-12T06:16:56.630Z,2.63
2019-03-12T06:17:56.620Z,2.67
2019-03-12T06:18:56.608Z,2.74
2019-03-12T06:19:56.615Z,2.72
2019-03-12T06:20:56.581Z,2.72
2019-03-12T06:21:56.572Z,2.71
2019-03-12T06:22:56.562Z,2.71
2019-03-12T06:23:56.559Z,2.72
2019-03-12T06:24:56.538Z,2.78
2019-03-12T06:25:56.546Z,2.77
2019-03-12T06:26:56.516Z,2.74
2019-03-12T06:27:56.503Z,2.72
2019-03-12T06:28:56.500Z,2.81
2019-03-12T06:29:56.493Z,2.78
2019-03-12T06:30:56.508Z,2.77
2019-03-12T06:31:56.465Z,2.74
2019-03-12T06:32:56.452Z,2.74
2019-03-12T06:33:56.442Z,2.72
2019-03-12T06:34:56.444Z,2.75
2019-03-12T06:35:56.430Z,2.72
2019-03-12T06:36:56.405Z,2.75
2019-03-12T06:37:56.395Z,2.79
2019-03-12T06:38:56.382Z,2.71
2019-03-12T06:39:56.388Z,2.74
2019-03-12T06:40:56.419Z,2.75
2019-03-12T06:41:56.360Z,2.71
2019-03-12T06:42:56.354Z,2.75
2019-03-12T06:43:56.339Z,2.74
2019-03-12T06:44:56.327Z,2.81
2019-03-12T06:45:56.326Z,2.82
2019-03-12T06:46:56.312Z,2.75
2019-03-12T06:47:56.324Z,2.84
2019-03-12T06:48:56.279Z,2.87
2019-03-12T06:49:56.278Z,2.90
2019-03-12T06:50:56.282Z,2.97
2019-03-12T06:51:56.244Z,2.99
2019-03-12T06:52:56.243Z,3.02
2019-03-12T06:53:56.232Z,3.10
2019-03-12T06:54:56.205Z,3.11
2019-03-12T06:55:56.217Z,3.24
2019-03-12T06:56:56.184Z,3.28
2019-03-12T06:57:56.174Z,3.28
2019-03-12T06:58:56.174Z,3.48
2019-03-12T06:59:56.151Z,3.42
2019-03-12T07:00:56.166Z,3.47
2019-03-12T07:01:56.130Z,3.42
2019-03-12T07:02:56.119Z,3.42
2019-03-12T07:03:56.111Z,3.40
2019-03-12T07:04:56.113Z,3.35
2019-03-12T07:05:56.092Z,3.33
2019-03-12T07:06:56.179Z,3.29
2019-03-12T07:07:56.065Z,3.21
2019-03-12T07:08:56.054Z,3.29
2019-03-12T07:09:56.045Z,3.23
2019-03-12T07:10:56.036Z,3.10
2019-03-12T07:11:56.044Z,3.08
2019-03-12T07:12:56.008Z,3.13
2019-03-12T07:13:55.999Z,3.13
2019-03-12T07:14:56.067Z,3.08
2019-03-12T07:15:55.995Z,3.23
2019-03-12T07:16:55.987Z,3.39
2019-03-12T07:17:56.043Z,3.52
2019-03-12T07:18:55.945Z,3.55
2019-03-12T07:19:55.935Z,3.75
2019-03-12T07:20:55.923Z,3.72
2019-03-12T07:21:55.930Z,3.87
2019-03-12T07:22:55.922Z,3.96
2019-03-12T07:23:55.899Z,4.08
2019-03-12T07:24:55.880Z,4.16
2019-03-12T07:25:55.868Z,4.29
2019-03-12T07:26:55.875Z,4.41
2019-03-12T07:27:55.846Z,4.50
2019-03-12T07:28:55.837Z,4.40
2019-03-12T07:29:55.839Z,4.50
2019-03-12T07:30:55.812Z,4.52
2019-03-12T07:31:55.830Z,4.63
2019-03-12T07:32:56.391Z,4.80
2019-03-12T07:33:55.779Z,4.88
2019-03-12T07:34:55.774Z,5.00
2019-03-12T07:35:55.779Z,4.99
2019-03-12T07:36:55.756Z,5.06
2019-03-12T07:37:55.757Z,5.20
2019-03-12T07:38:55.728Z,5.24
2019-03-12T07:39:55.715Z,5.36
2019-03-12T07:40:55.707Z,5.43
2019-03-12T07:41:55.705Z,5.48
2019-03-12T07:42:55.713Z,5.57
2019-03-12T07:43:55.670Z,5.49
2019-03-12T07:44:55.666Z,5.51
2019-03-12T07:45:55.648Z,5.48
2019-03-12T07:46:55.638Z,5.48
2019-03-12T07:47:55.624Z,5.53
2019-03-12T07:48:55.630Z,5.54
2019-03-12T07:49:55.607Z,5.61
2019-03-12T07:50:55.600Z,5.67
2019-03-12T07:51:55.586Z,5.76
2019-03-12T07:52:55.570Z,5.86
2019-03-12T07:53:59.816Z,6.03
2019-03-12T07:54:55.554Z,6.03
2019-03-12T07:55:55.537Z,6.06
2019-03-12T07:56:55.542Z,6.15
2019-03-12T07:57:55.527Z,6.18
2019-03-12T07:58:55.526Z,6.18
2019-03-12T07:59:55.500Z,6.36
2019-03-12T08:00:55.484Z,6.37
2019-03-12T08:01:55.473Z,6.38
2019-03-12T08:02:55.461Z,6.54
2019-03-12T08:03:55.468Z,6.51
2019-03-12T08:04:55.448Z,6.64
2019-03-12T08:05:55.437Z,6.64
2019-03-12T08:06:55.436Z,6.73
2019-03-12T08:07:55.410Z,6.74
2019-03-12T08:08:55.425Z,6.73
2019-03-12T08:09:55.400Z,6.76
2019-03-12T08:10:55.374Z,6.85
2019-03-12T08:11:55.365Z,6.85
2019-03-12T08:12:55.358Z,7.02
2019-03-12T08:13:55.363Z,7.02
2019-03-12T08:14:55.343Z,7.06
2019-03-12T08:15:55.317Z,7.06
2019-03-12T08:16:55.308Z,7.30
2019-03-12T08:17:55.304Z,7.32
2019-03-12T08:18:55.316Z,7.48
2019-03-12T08:19:55.274Z,7.71
2019-03-12T08:20:55.264Z,7.53
2019-03-12T08:21:55.252Z,7.48
2019-03-12T08:22:55.241Z,7.57
2019-03-12T08:23:55.265Z,7.64
2019-03-12T08:24:55.243Z,7.68
2019-03-12T08:25:55.227Z,7.67
2019-03-12T08:26:55.206Z,7.77
2019-03-12T08:27:55.186Z,7.86
2019-03-12T08:28:55.209Z,7.80
2019-03-12T08:29:55.170Z,7.86
2019-03-12T08:30:55.152Z,8.02
2019-03-12T08:31:55.141Z,8.04
2019-03-12T08:32:55.141Z,8.02
2019-03-12T08:33:55.131Z,8.05
2019-03-12T08:34:55.128Z,7.95
2019-03-12T08:35:55.099Z,7.87
2019-03-12T08:36:55.086Z,7.90
2019-03-12T08:37:55.083Z,7.85
2019-03-12T08:38:55.063Z,7.92
2019-03-12T08:39:55.089Z,7.92
2019-03-12T08:40:55.044Z,7.92
2019-03-12T08:41:55.032Z,7.89
2019-03-12T08:42:55.164Z,7.85
2019-03-12T08:43:55.006Z,7.80
2019-03-12T08:44:55.030Z,7.80
2019-03-12T08:45:54.990Z,7.87
2019-03-12T08:46:54.979Z,7.86
2019-03-12T08:47:54.964Z,7.89
2019-03-12T08:48:54.953Z,7.93
2019-03-12T08:49:54.943Z,7.83
2019-03-12T08:50:54.949Z,7.72
2019-03-12T08:51:54.935Z,7.71
2019-03-12T08:52:54.910Z,7.79
2019-03-12T08:53:54.902Z,7.92
2019-03-12T08:54:54.990Z,7.97
2019-03-12T08:55:54.893Z,7.98
2019-03-12T08:56:54.876Z,8.15
2019-03-12T08:57:54.852Z,8.23
2019-03-12T08:58:54.855Z,8.26
2019-03-12T08:59:54.832Z,8.34
2019-03-12T09:00:54.846Z,8.34
2019-03-12T09:01:54.810Z,8.33
2019-03-12T09:02:54.802Z,8.34
2019-03-12T09:03:54.789Z,8.23
2019-03-12T09:04:54.779Z,8.25
2019-03-12T09:05:54.791Z,8.20
2019-03-12T09:06:54.766Z,8.29
2019-03-12T09:07:54.762Z,8.50
2019-03-12T09:08:54.732Z,8.58
2019-03-12T09:09:54.722Z,8.70
2019-03-12T09:10:54.729Z,8.79
2019-03-12T09:11:54.706Z,8.83
2019-03-12T09:12:54.689Z,8.89
2019-03-12T09:13:54.685Z,8.98
2019-03-12T09:14:54.669Z,8.98
2019-03-12T09:15:54.674Z,9.05
2019-03-12T09:16:54.649Z,9.14
2019-03-12T09:17:54.654Z,9.33
2019-03-12T09:18:54.634Z,9.43
2019-03-12T09:19:54.614Z,9.48
2019-03-12T09:20:54.623Z,9.64
2019-03-12T09:21:54.595Z,9.72
2019-03-12T09:22:54.594Z,9.81
2019-03-12T09:23:54.588Z,9.81
2019-03-12T09:24:54.563Z,9.93
2019-03-12T09:25:54.569Z,10.01
2019-03-12T09:26:54.537Z,10.20
2019-03-12T09:27:54.532Z,10.15
2019-03-12T09:28:54.518Z,10.18
2019-03-12T09:29:54.504Z,10.23
2019-03-12T09:30:54.503Z,10.26
2019-03-12T09:31:54.507Z,10.15
2019-03-12T09:32:54.471Z,10.15
2019-03-12T09:33:54.470Z,10.07
2019-03-12T09:34:54.452Z,10.15
2019-03-12T09:35:54.436Z,10.07
2019-03-12T09:36:54.450Z,9.94
2019-03-12T09:37:54.429Z,9.84
2019-03-12T09:38:54.410Z,9.76
2019-03-12T09:39:54.393Z,9.83
2019-03-12T09:40:54.390Z,9.75
2019-03-12T09:41:54.407Z,9.86
2019-03-12T09:42:54.365Z,9.78
2019-03-12T09:43:54.362Z,9.86
2019-03-12T09:44:54.344Z,9.79
2019-03-12T09:45:54.326Z,9.84
2019-03-12T09:46:54.329Z,9.72
2019-03-12T09:47:54.305Z,9.89
2019-03-12T09:48:54.289Z,9.99
2019-03-12T09:49:54.299Z,10.17
2019-03-12T09:50:54.270Z,10.22
2019-03-12T09:51:54.281Z,10.23
2019-03-12T09:52:54.251Z,10.08
2019-03-12T09:53:54.244Z,10.02
2019-03-12T09:54:54.225Z,10.09
2019-03-12T09:55:54.215Z,10.15
2019-03-12T09:56:54.209Z,10.09
2019-03-12T09:57:54.216Z,9.87
2019-03-12T09:58:54.179Z,9.74
2019-03-12T09:59:54.182Z,9.68
2019-03-12T10:00:54.162Z,9.64
2019-03-12T10:01:54.146Z,9.66
2019-03-12T10:02:54.153Z,9.66
2019-03-12T10:03:54.134Z,9.72
2019-03-12T10:04:54.110Z,9.69
2019-03-12T10:05:54.110Z,9.68
2019-03-12T10:06:54.091Z,9.78
2019-03-12T10:07:54.104Z,9.91
2019-03-12T10:08:54.072Z,9.84
2019-03-12T10:09:54.062Z,9.78
2019-03-12T10:10:54.043Z,10.01
2019-03-12T10:11:54.033Z,9.81
2019-03-12T10:12:54.044Z,9.86
2019-03-12T10:13:54.011Z,9.84
2019-03-12T10:14:54.019Z,9.89
2019-03-12T10:15:53.997Z,9.69
2019-03-12T10:16:53.985Z,9.71
2019-03-12T10:17:53.980Z,9.66
2019-03-12T10:18:53.959Z,9.58
2019-03-12T10:19:53.943Z,9.40
2019-03-12T10:20:53.932Z,9.56
2019-03-12T10:21:53.926Z,9.48
2019-03-12T10:22:53.961Z,9.54
2019-03-12T10:23:53.900Z,9.51
2019-03-12T10:24:53.892Z,9.57
2019-03-12T10:25:53.877Z,9.50
2019-03-12T10:26:53.874Z,9.53
2019-03-12T10:27:53.862Z,9.51
2019-03-12T10:28:53.876Z,9.56
2019-03-12T10:29:53.835Z,9.54
2019-03-12T10:30:53.824Z,9.58
2019-03-12T10:31:53.811Z,9.51
2019-03-12T10:32:53.801Z,9.51
2019-03-12T10:33:53.808Z,9.53
2019-03-12T10:34:53.785Z,9.39
2019-03-12T10:35:53.819Z,9.48
2019-03-12T10:36:53.772Z,9.46
2019-03-12T10:37:53.744Z,9.47
2019-03-12T10:38:53.752Z,9.40
2019-03-12T10:39:53.724Z,9.47
2019-03-12T10:40:53.724Z,9.47
2019-03-12T10:41:53.717Z,9.38
2019-03-12T10:42:53.713Z,9.38
2019-03-12T10:43:55.541Z,9.38
2019-03-12T10:44:53.674Z,9.42
2019-03-12T10:45:53.657Z,9.51
2019-03-12T10:46:53.654Z,9.51
2019-03-12T10:47:53.643Z,9.54
2019-03-12T10:48:53.625Z,9.69
2019-03-12T10:49:53.654Z,9.71
2019-03-12T10:50:53.606Z,9.61
2019-03-12T10:51:53.593Z,9.72
2019-03-12T10:52:53.588Z,9.90
2019-03-12T10:53:53.580Z,9.90
2019-03-12T10:54:53.600Z,9.84
2019-03-12T10:55:53.559Z,9.84
2019-03-12T10:56:53.548Z,9.96
2019-03-12T10:57:53.525Z,9.99
2019-03-12T10:58:53.519Z,9.99
2019-03-12T10:59:53.522Z,9.96
2019-03-12T11:00:53.500Z,10.08
2019-03-12T11:01:53.484Z,10.18
2019-03-12T11:02:53.480Z,10.22
2019-03-12T11:03:53.460Z,10.20
2019-03-12T11:04:53.475Z,10.22
2019-03-12T11:05:53.448Z,10.30
2019-03-12T11:06:53.427Z,10.41
2019-03-12T11:07:53.422Z,10.52
2019-03-12T11:08:53.407Z,10.32
2019-03-12T11:09:53.459Z,10.29
2019-03-12T11:10:53.411Z,10.26
2019-03-12T11:11:53.377Z,10.33
2019-03-12T11:12:53.360Z,10.33
2019-03-12T11:13:53.350Z,10.36
2019-03-12T11:14:53.339Z,10.25
2019-03-12T11:15:53.353Z,10.22
2019-03-12T11:16:53.318Z,10.11
2019-03-12T11:17:53.322Z,10.04
2019-03-12T11:18:53.291Z,10.01
2019-03-12T11:19:53.324Z,9.93
2019-03-12T11:20:53.287Z,9.76
2019-03-12T11:21:53.275Z,9.75
2019-03-12T11:22:53.250Z,9.78
2019-03-12T11:23:53.237Z,9.76
2019-03-12T11:24:53.256Z,9.69
2019-03-12T11:25:53.236Z,9.69
2019-03-12T11:26:53.207Z,9.75
2019-03-12T11:27:53.198Z,9.74
2019-03-12T11:28:53.188Z,9.69
2019-03-12T11:29:53.183Z,9.74
2019-03-12T11:30:53.196Z,9.69
2019-03-12T11:31:53.199Z,9.71
2019-03-12T11:32:53.160Z,9.71
2019-03-12T11:33:53.134Z,9.79
2019-03-12T11:34:53.126Z,9.86
2019-03-12T11:35:53.249Z,9.83
2019-03-12T11:36:53.095Z,9.84
2019-03-12T11:37:53.093Z,9.81
2019-03-12T11:38:53.109Z,9.81
2019-03-12T11:39:53.068Z,9.87
2019-03-12T11:40:53.134Z,9.84
2019-03-12T11:41:53.121Z,9.93
2019-03-12T11:42:53.094Z,9.78
2019-03-12T11:43:53.060Z,9.86
2019-03-12T11:44:53.012Z,9.83
2019-03-12T11:45:52.995Z,9.72
2019-03-12T11:46:53.002Z,9.74
2019-03-12T11:47:52.972Z,9.81
2019-03-12T11:48:52.967Z,9.72
2019-03-12T11:49:52.966Z,9.79
2019-03-12T11:50:52.998Z,9.76
2019-03-12T11:51:52.970Z,9.69
2019-03-12T11:52:56.787Z,9.76
2019-03-12T11:53:53.926Z,9.75
2019-03-12T11:54:52.900Z,9.76
2019-03-12T11:55:52.905Z,9.75
2019-03-12T11:56:52.891Z,9.68
2019-03-12T11:57:52.926Z,9.66
2019-03-12T11:58:52.856Z,9.72
2019-03-12T11:59:52.845Z,9.65
2019-03-12T12:00:52.849Z,9.71
2019-03-12T12:01:52.844Z,9.74
2019-03-12T12:02:59.712Z,9.89
2019-03-12T12:03:53.797Z,9.74
2019-03-12T12:04:52.791Z,9.71
2019-03-12T12:05:52.787Z,9.74
2019-03-12T12:06:52.762Z,9.69
2019-03-12T12:07:52.793Z,9.69
2019-03-12T12:08:52.750Z,9.68
2019-03-12T12:09:52.730Z,9.53
2019-03-12T12:10:52.719Z,9.57
2019-03-12T12:11:52.732Z,9.60
2019-03-12T12:12:52.700Z,9.61
2019-03-12T12:13:52.691Z,9.60
2019-03-12T12:14:52.701Z,9.65
2019-03-12T12:15:52.672Z,9.60
2019-03-12T12:16:52.732Z,9.61
2019-03-12T12:17:52.640Z,9.57
2019-03-12T12:18:52.640Z,9.53
2019-03-12T12:19:52.626Z,9.51
2019-03-12T12:20:52.621Z,9.57
2019-03-12T12:21:52.599Z,9.61
2019-03-12T12:22:52.611Z,9.64
2019-03-12T12:23:52.613Z,9.71
2019-03-12T12:24:52.566Z,9.61
2019-03-12T12:25:52.565Z,9.71
2019-03-12T12:26:52.549Z,9.68
2019-03-12T12:27:52.533Z,9.69
2019-03-12T12:28:52.568Z,9.65
2019-03-12T12:29:52.538Z,9.58
2019-03-12T12:30:52.510Z,9.65
2019-03-12T12:31:52.517Z,9.66
2019-03-12T12:32:52.504Z,9.68
2019-03-12T12:33:52.473Z,9.69
2019-03-12T12:34:52.475Z,9.58
2019-03-12T12:35:52.446Z,9.60
2019-03-12T12:36:52.442Z,9.68
2019-03-12T12:37:52.439Z,9.60
2019-03-12T12:38:52.436Z,9.74
2019-03-12T12:39:52.406Z,9.58
2019-03-12T12:40:52.401Z,9.74
2019-03-12T12:41:52.383Z,9.68
2019-03-12T12:42:52.371Z,9.58
2019-03-12T12:43:52.383Z,9.56
2019-03-12T12:44:52.356Z,9.54
2019-03-12T12:45:52.344Z,9.57
2019-03-12T12:46:52.326Z,9.46
2019-03-12T12:47:52.325Z,9.42
2019-03-12T12:48:53.396Z,9.39
2019-03-12T12:49:52.304Z,9.32
2019-03-12T12:51:02.310Z,9.33
2019-03-12T12:51:53.276Z,9.32
2019-03-12T12:52:52.263Z,9.31
2019-03-12T12:53:52.277Z,9.28
2019-03-12T12:54:52.247Z,9.33
2019-03-12T12:55:52.233Z,9.33
2019-03-12T12:56:52.221Z,9.40
2019-03-12T12:57:52.213Z,9.53
2019-03-12T12:58:52.211Z,9.50
2019-03-12T12:59:52.187Z,9.54
2019-03-12T13:00:52.184Z,9.53
2019-03-12T13:01:52.165Z,9.57
2019-03-12T13:02:52.163Z,9.51
2019-03-12T13:03:52.188Z,9.58
2019-03-12T13:04:52.133Z,9.68
2019-03-12T13:05:55.299Z,9.66
2019-03-12T13:06:52.120Z,9.57
2019-03-12T13:07:52.111Z,9.66
2019-03-12T13:08:52.094Z,9.72
2019-03-12T13:09:52.101Z,9.68
2019-03-12T13:10:52.077Z,9.68
2019-03-12T13:11:52.056Z,9.83
2019-03-12T13:12:52.051Z,9.81
2019-03-12T13:13:52.038Z,9.94
2019-03-12T13:14:52.057Z,9.99
2019-03-12T13:15:52.023Z,10.07
2019-03-12T13:16:52.002Z,10.22